sensor_id;sensor_type;location;lat;lon;timestamp;P1;durP1;ratioP1;P2;durP2;ratioP2
82159;SDS011;71734;50.876;7.372;2024-01-06T00:01:47;3.28;;;1.15;;
82159;SDS011;71734;50.876;7.372;2024-01-06T00:04:13;5.13;;;1.50;;
82159;SDS011;71734;50.876;7.372;2024-01-06T00:06:40;4.80;;;1.50;;
82159;SDS011;71734;50.876;7.372;2024-01-06T00:09:08;5.13;;;1.20;;
82159;SDS011;71734;50.876;7.372;2024-01-06T00:11:35;5.00;;;1.30;;
82159;SDS011;71734;50.876;7.372;2024-01-06T00:14:01;4.13;;;1.40;;
82159;SDS011;71734;50.876;7.372;2024-01-06T00:16:28;4.13;;;1.40;;
82159;SDS011;71734;50.876;7.372;2024-01-06T00:18:54;4.78;;;1.35;;
82159;SDS011;71734;50.876;7.372;2024-01-06T00:21:21;4.05;;;1.30;;
82159;SDS011;71734;50.876;7.372;2024-01-06T00:23:47;4.63;;;1.42;;
82159;SDS011;71734;50.876;7.372;2024-01-06T00:26:15;4.65;;;1.25;;
82159;SDS011;71734;50.876;7.372;2024-01-06T00:28:41;4.45;;;1.50;;
82159;SDS011;71734;50.876;7.372;2024-01-06T00:31:08;4.10;;;1.45;;
82159;SDS011;71734;50.876;7.372;2024-01-06T00:33:35;4.30;;;1.13;;
82159;SDS011;71734;50.876;7.372;2024-01-06T00:36:01;5.03;;;1.50;;
82159;SDS011;71734;50.876;7.372;2024-01-06T00:38:28;5.60;;;1.40;;
82159;SDS011;71734;50.876;7.372;2024-01-06T00:40:54;5.53;;;1.40;;
82159;SDS011;71734;50.876;7.372;2024-01-06T00:43:22;4.05;;;1.50;;
82159;SDS011;71734;50.876;7.372;2024-01-06T00:45:49;3.78;;;1.42;;
82159;SDS011;71734;50.876;7.372;2024-01-06T00:48:14;3.67;;;1.30;;
82159;SDS011;71734;50.876;7.372;2024-01-06T00:50:41;5.82;;;1.83;;
82159;SDS011;71734;50.876;7.372;2024-01-06T00:53:07;6.53;;;1.70;;
82159;SDS011;71734;50.876;7.372;2024-01-06T00:55:34;5.85;;;1.70;;
82159;SDS011;71734;50.876;7.372;2024-01-06T00:58:00;5.72;;;1.80;;
82159;SDS011;71734;50.876;7.372;2024-01-06T01:00:28;5.78;;;1.80;;
82159;SDS011;71734;50.876;7.372;2024-01-06T01:02:55;5.47;;;1.92;;
82159;SDS011;71734;50.876;7.372;2024-01-06T01:05:22;5.55;;;1.80;;
82159;SDS011;71734;50.876;7.372;2024-01-06T01:07:48;5.30;;;1.70;;
82159;SDS011;71734;50.876;7.372;2024-01-06T01:10:15;4.63;;;1.83;;
82159;SDS011;71734;50.876;7.372;2024-01-06T01:12:41;5.82;;;1.92;;
82159;SDS011;71734;50.876;7.372;2024-01-06T01:15:08;4.85;;;2.00;;
82159;SDS011;71734;50.876;7.372;2024-01-06T01:17:36;5.65;;;1.92;;
82159;SDS011;71734;50.876;7.372;2024-01-06T01:20:03;5.38;;;1.70;;
82159;SDS011;71734;50.876;7.372;2024-01-06T01:22:30;7.47;;;2.20;;
82159;SDS011;71734;50.876;7.372;2024-01-06T01:24:57;4.93;;;1.95;;
82159;SDS011;71734;50.876;7.372;2024-01-06T01:27:23;4.72;;;1.73;;
82159;SDS011;71734;50.876;7.372;2024-01-06T01:29:50;5.13;;;1.63;;
82159;SDS011;71734;50.876;7.372;2024-01-06T01:32:17;5.30;;;1.75;;
82159;SDS011;71734;50.876;7.372;2024-01-06T01:34:45;6.57;;;2.30;;
82159;SDS011;71734;50.876;7.372;2024-01-06T01:37:12;5.50;;;1.92;;
82159;SDS011;71734;50.876;7.372;2024-01-06T01:39:38;5.80;;;2.05;;
82159;SDS011;71734;50.876;7.372;2024-01-06T01:42:05;6.43;;;2.45;;
82159;SDS011;71734;50.876;7.372;2024-01-06T01:44:31;6.07;;;2.30;;
82159;SDS011;71734;50.876;7.372;2024-01-06T01:46:58;6.18;;;2.15;;
82159;SDS011;71734;50.876;7.372;2024-01-06T01:49:25;5.70;;;2.20;;
82159;SDS011;71734;50.876;7.372;2024-01-06T01:51:53;6.53;;;2.30;;
82159;SDS011;71734;50.876;7.372;2024-01-06T01:54:20;6.63;;;2.65;;
82159;SDS011;71734;50.876;7.372;2024-01-06T01:56:47;6.22;;;2.40;;
82159;SDS011;71734;50.876;7.372;2024-01-06T01:59:14;7.13;;;2.60;;
82159;SDS011;71734;50.876;7.372;2024-01-06T02:01:43;6.90;;;2.72;;
82159;SDS011;71734;50.876;7.372;2024-01-06T02:04:10;7.57;;;3.00;;
82159;SDS011;71734;50.876;7.372;2024-01-06T02:06:37;6.78;;;2.90;;
82159;SDS011;71734;50.876;7.372;2024-01-06T02:09:05;7.45;;;2.70;;
82159;SDS011;71734;50.876;7.372;2024-01-06T02:11:32;6.95;;;2.47;;
82159;SDS011;71734;50.876;7.372;2024-01-06T02:13:58;6.72;;;2.60;;
82159;SDS011;71734;50.876;7.372;2024-01-06T02:16:25;7.03;;;2.78;;
82159;SDS011;71734;50.876;7.372;2024-01-06T02:18:52;6.13;;;2.60;;
82159;SDS011;71734;50.876;7.372;2024-01-06T02:21:18;7.18;;;2.90;;
82159;SDS011;71734;50.876;7.372;2024-01-06T02:23:49;7.93;;;3.10;;
82159;SDS011;71734;50.876;7.372;2024-01-06T02:26:15;6.45;;;2.50;;
82159;SDS011;71734;50.876;7.372;2024-01-06T02:28:42;6.63;;;2.72;;
82159;SDS011;71734;50.876;7.372;2024-01-06T02:31:12;7.45;;;2.72;;
82159;SDS011;71734;50.876;7.372;2024-01-06T02:33:39;7.25;;;2.85;;
82159;SDS011;71734;50.876;7.372;2024-01-06T02:36:06;7.85;;;3.17;;
82159;SDS011;71734;50.876;7.372;2024-01-06T02:38:33;7.93;;;3.08;;
82159;SDS011;71734;50.876;7.372;2024-01-06T02:41:01;7.22;;;2.90;;
82159;SDS011;71734;50.876;7.372;2024-01-06T02:43:27;7.63;;;3.30;;
82159;SDS011;71734;50.876;7.372;2024-01-06T02:45:54;8.07;;;3.40;;
82159;SDS011;71734;50.876;7.372;2024-01-06T02:48:20;8.48;;;3.30;;
82159;SDS011;71734;50.876;7.372;2024-01-06T02:50:46;8.95;;;3.70;;
82159;SDS011;71734;50.876;7.372;2024-01-06T02:53:13;8.73;;;3.75;;
82159;SDS011;71734;50.876;7.372;2024-01-06T02:55:39;9.00;;;3.80;;
82159;SDS011;71734;50.876;7.372;2024-01-06T02:58:07;12.65;;;4.95;;
82159;SDS011;71734;50.876;7.372;2024-01-06T03:00:34;9.48;;;4.22;;
82159;SDS011;71734;50.876;7.372;2024-01-06T03:03:00;9.80;;;4.25;;
82159;SDS011;71734;50.876;7.372;2024-01-06T03:05:27;10.45;;;4.53;;
82159;SDS011;71734;50.876;7.372;2024-01-06T03:07:53;10.60;;;4.35;;
82159;SDS011;71734;50.876;7.372;2024-01-06T03:10:20;10.40;;;4.35;;
82159;SDS011;71734;50.876;7.372;2024-01-06T03:12:46;10.02;;;4.32;;
82159;SDS011;71734;50.876;7.372;2024-01-06T03:15:14;10.45;;;4.15;;
82159;SDS011;71734;50.876;7.372;2024-01-06T03:17:41;10.90;;;4.70;;
82159;SDS011;71734;50.876;7.372;2024-01-06T03:20:08;11.93;;;4.28;;
82159;SDS011;71734;50.876;7.372;2024-01-06T03:22:35;10.43;;;4.20;;
82159;SDS011;71734;50.876;7.372;2024-01-06T03:25:03;10.05;;;4.00;;
82159;SDS011;71734;50.876;7.372;2024-01-06T03:27:31;11.45;;;4.63;;
82159;SDS011;71734;50.876;7.372;2024-01-06T03:29:58;11.88;;;4.78;;
82159;SDS011;71734;50.876;7.372;2024-01-06T03:32:26;13.35;;;5.13;;
82159;SDS011;71734;50.876;7.372;2024-01-06T03:34:53;11.45;;;4.68;;
82159;SDS011;71734;50.876;7.372;2024-01-06T03:37:19;12.25;;;5.18;;
82159;SDS011;71734;50.876;7.372;2024-01-06T03:39:47;11.20;;;4.53;;
82159;SDS011;71734;50.876;7.372;2024-01-06T03:42:13;12.40;;;4.82;;
82159;SDS011;71734;50.876;7.372;2024-01-06T03:44:40;13.68;;;5.38;;
82159;SDS011;71734;50.876;7.372;2024-01-06T03:47:06;12.10;;;4.88;;
82159;SDS011;71734;50.876;7.372;2024-01-06T03:49:34;10.27;;;4.18;;
82159;SDS011;71734;50.876;7.372;2024-01-06T03:52:01;12.32;;;5.10;;
82159;SDS011;71734;50.876;7.372;2024-01-06T03:54:27;12.25;;;4.47;;
82159;SDS011;71734;50.876;7.372;2024-01-06T03:56:54;11.48;;;4.47;;
82159;SDS011;71734;50.876;7.372;2024-01-06T03:59:20;12.98;;;5.00;;
82159;SDS011;71734;50.876;7.372;2024-01-06T04:01:47;11.65;;;4.82;;
82159;SDS011;71734;50.876;7.372;2024-01-06T04:04:13;13.30;;;5.38;;
82159;SDS011;71734;50.876;7.372;2024-01-06T04:06:41;13.60;;;5.40;;
82159;SDS011;71734;50.876;7.372;2024-01-06T04:09:08;13.30;;;5.10;;
82159;SDS011;71734;50.876;7.372;2024-01-06T04:11:35;12.02;;;4.80;;
82159;SDS011;71734;50.876;7.372;2024-01-06T04:14:01;14.80;;;5.93;;
82159;SDS011;71734;50.876;7.372;2024-01-06T04:16:28;16.20;;;5.32;;
82159;SDS011;71734;50.876;7.372;2024-01-06T04:18:55;14.07;;;5.47;;
82159;SDS011;71734;50.876;7.372;2024-01-06T04:21:21;13.40;;;5.38;;
82159;SDS011;71734;50.876;7.372;2024-01-06T04:23:49;17.35;;;6.80;;
82159;SDS011;71734;50.876;7.372;2024-01-06T04:26:16;14.65;;;6.07;;
82159;SDS011;71734;50.876;7.372;2024-01-06T04:28:42;15.05;;;6.05;;
82159;SDS011;71734;50.876;7.372;2024-01-06T04:31:09;15.68;;;6.18;;
82159;SDS011;71734;50.876;7.372;2024-01-06T04:33:35;14.95;;;5.63;;
82159;SDS011;71734;50.876;7.372;2024-01-06T04:36:03;16.90;;;6.28;;
82159;SDS011;71734;50.876;7.372;2024-01-06T04:38:30;15.90;;;6.10;;
82159;SDS011;71734;50.876;7.372;2024-01-06T04:40:57;16.65;;;5.90;;
82159;SDS011;71734;50.876;7.372;2024-01-06T04:43:24;17.27;;;6.57;;
82159;SDS011;71734;50.876;7.372;2024-01-06T04:45:50;16.45;;;6.13;;
82159;SDS011;71734;50.876;7.372;2024-01-06T04:48:17;16.90;;;6.55;;
82159;SDS011;71734;50.876;7.372;2024-01-06T04:50:43;17.15;;;6.47;;
82159;SDS011;71734;50.876;7.372;2024-01-06T04:53:10;16.42;;;6.05;;
82159;SDS011;71734;50.876;7.372;2024-01-06T04:55:37;17.85;;;6.72;;
82159;SDS011;71734;50.876;7.372;2024-01-06T04:58:04;17.75;;;6.63;;
82159;SDS011;71734;50.876;7.372;2024-01-06T05:00:31;17.50;;;7.25;;
82159;SDS011;71734;50.876;7.372;2024-01-06T05:03:01;17.63;;;6.50;;
82159;SDS011;71734;50.876;7.372;2024-01-06T05:05:27;18.25;;;7.45;;
82159;SDS011;71734;50.876;7.372;2024-01-06T05:07:54;19.55;;;7.32;;
82159;SDS011;71734;50.876;7.372;2024-01-06T05:10:20;19.50;;;7.55;;
82159;SDS011;71734;50.876;7.372;2024-01-06T05:12:47;18.25;;;7.03;;
82159;SDS011;71734;50.876;7.372;2024-01-06T05:15:15;17.30;;;6.78;;
82159;SDS011;71734;50.876;7.372;2024-01-06T05:17:42;18.42;;;7.30;;
82159;SDS011;71734;50.876;7.372;2024-01-06T05:20:08;17.77;;;6.63;;
82159;SDS011;71734;50.876;7.372;2024-01-06T05:22:35;18.48;;;7.00;;
82159;SDS011;71734;50.876;7.372;2024-01-06T05:25:02;19.27;;;7.43;;
82159;SDS011;71734;50.876;7.372;2024-01-06T05:27:29;18.60;;;7.47;;
82159;SDS011;71734;50.876;7.372;2024-01-06T05:29:55;18.42;;;6.97;;
82159;SDS011;71734;50.876;7.372;2024-01-06T05:32:23;21.70;;;7.75;;
82159;SDS011;71734;50.876;7.372;2024-01-06T05:34:50;20.42;;;8.32;;
82159;SDS011;71734;50.876;7.372;2024-01-06T05:37:16;20.30;;;7.55;;
82159;SDS011;71734;50.876;7.372;2024-01-06T05:39:43;20.77;;;8.43;;
82159;SDS011;71734;50.876;7.372;2024-01-06T05:42:09;24.52;;;8.30;;
82159;SDS011;71734;50.876;7.372;2024-01-06T05:44:36;18.38;;;7.38;;
82159;SDS011;71734;50.876;7.372;2024-01-06T05:47:03;19.73;;;7.50;;
82159;SDS011;71734;50.876;7.372;2024-01-06T05:49:31;21.10;;;8.40;;
82159;SDS011;71734;50.876;7.372;2024-01-06T05:51:58;22.30;;;8.77;;
82159;SDS011;71734;50.876;7.372;2024-01-06T05:54:24;22.63;;;7.72;;
82159;SDS011;71734;50.876;7.372;2024-01-06T05:56:51;19.75;;;8.00;;
82159;SDS011;71734;50.876;7.372;2024-01-06T05:59:17;19.23;;;7.72;;
82159;SDS011;71734;50.876;7.372;2024-01-06T06:01:44;20.40;;;7.00;;
82159;SDS011;71734;50.876;7.372;2024-01-06T06:04:11;18.55;;;6.82;;
82159;SDS011;71734;50.876;7.372;2024-01-06T06:06:39;16.75;;;6.15;;
82159;SDS011;71734;50.876;7.372;2024-01-06T06:09:05;21.35;;;7.85;;
82159;SDS011;71734;50.876;7.372;2024-01-06T06:11:32;18.92;;;6.93;;
82159;SDS011;71734;50.876;7.372;2024-01-06T06:13:58;23.25;;;8.85;;
82159;SDS011;71734;50.876;7.372;2024-01-06T06:16:27;23.15;;;8.48;;
82159;SDS011;71734;50.876;7.372;2024-01-06T06:18:54;24.70;;;8.77;;
82159;SDS011;71734;50.876;7.372;2024-01-06T06:21:21;24.27;;;8.65;;
82159;SDS011;71734;50.876;7.372;2024-01-06T06:23:49;21.52;;;8.00;;
82159;SDS011;71734;50.876;7.372;2024-01-06T06:26:15;23.38;;;8.07;;
82159;SDS011;71734;50.876;7.372;2024-01-06T06:28:42;20.80;;;8.25;;
82159;SDS011;71734;50.876;7.372;2024-01-06T06:31:08;24.30;;;9.00;;
82159;SDS011;71734;50.876;7.372;2024-01-06T06:33:35;22.50;;;8.20;;
82159;SDS011;71734;50.876;7.372;2024-01-06T06:36:02;19.17;;;7.78;;
82159;SDS011;71734;50.876;7.372;2024-01-06T06:38:29;20.02;;;7.70;;
82159;SDS011;71734;50.876;7.372;2024-01-06T06:40:57;22.13;;;8.05;;
82159;SDS011;71734;50.876;7.372;2024-01-06T06:43:23;19.85;;;7.75;;
82159;SDS011;71734;50.876;7.372;2024-01-06T06:45:50;23.73;;;8.90;;
82159;SDS011;71734;50.876;7.372;2024-01-06T06:48:16;22.25;;;8.13;;
82159;SDS011;71734;50.876;7.372;2024-01-06T06:50:43;21.00;;;8.40;;
82159;SDS011;71734;50.876;7.372;2024-01-06T06:53:09;22.70;;;7.97;;
82159;SDS011;71734;50.876;7.372;2024-01-06T06:55:37;20.35;;;8.05;;
82159;SDS011;71734;50.876;7.372;2024-01-06T06:58:07;20.75;;;8.00;;
82159;SDS011;71734;50.876;7.372;2024-01-06T07:00:34;19.63;;;7.75;;
82159;SDS011;71734;50.876;7.372;2024-01-06T07:03:02;17.08;;;7.10;;
82159;SDS011;71734;50.876;7.372;2024-01-06T07:05:28;19.13;;;7.63;;
82159;SDS011;71734;50.876;7.372;2024-01-06T07:07:55;20.02;;;7.47;;
82159;SDS011;71734;50.876;7.372;2024-01-06T07:10:22;21.60;;;7.47;;
82159;SDS011;71734;50.876;7.372;2024-01-06T07:12:48;19.73;;;7.60;;
82159;SDS011;71734;50.876;7.372;2024-01-06T07:15:16;17.85;;;7.53;;
82159;SDS011;71734;50.876;7.372;2024-01-06T07:17:43;17.17;;;6.55;;
82159;SDS011;71734;50.876;7.372;2024-01-06T07:20:09;18.23;;;6.90;;
82159;SDS011;71734;50.876;7.372;2024-01-06T07:22:36;14.55;;;6.07;;
82159;SDS011;71734;50.876;7.372;2024-01-06T07:25:03;13.88;;;4.95;;
82159;SDS011;71734;50.876;7.372;2024-01-06T07:27:30;13.35;;;5.30;;
82159;SDS011;71734;50.876;7.372;2024-01-06T07:29:57;13.68;;;5.45;;
82159;SDS011;71734;50.876;7.372;2024-01-06T07:32:25;12.63;;;4.57;;
82159;SDS011;71734;50.876;7.372;2024-01-06T07:34:51;12.57;;;4.90;;
82159;SDS011;71734;50.876;7.372;2024-01-06T07:37:18;12.35;;;4.60;;
82159;SDS011;71734;50.876;7.372;2024-01-06T07:39:44;11.18;;;4.50;;
82159;SDS011;71734;50.876;7.372;2024-01-06T07:42:11;12.85;;;4.65;;
82159;SDS011;71734;50.876;7.372;2024-01-06T07:44:37;12.05;;;4.53;;
82159;SDS011;71734;50.876;7.372;2024-01-06T07:47:04;10.77;;;4.00;;
82159;SDS011;71734;50.876;7.372;2024-01-06T07:49:32;11.95;;;5.20;;
82159;SDS011;71734;50.876;7.372;2024-01-06T07:51:59;11.20;;;5.07;;
82159;SDS011;71734;50.876;7.372;2024-01-06T07:54:25;13.20;;;4.82;;
82159;SDS011;71734;50.876;7.372;2024-01-06T07:56:52;11.43;;;4.60;;
82159;SDS011;71734;50.876;7.372;2024-01-06T07:59:18;11.63;;;4.18;;
82159;SDS011;71734;50.876;7.372;2024-01-06T08:01:45;13.20;;;5.45;;
82159;SDS011;71734;50.876;7.372;2024-01-06T08:04:11;12.02;;;4.15;;
82159;SDS011;71734;50.876;7.372;2024-01-06T08:06:39;11.63;;;3.85;;
82159;SDS011;71734;50.876;7.372;2024-01-06T08:09:06;11.73;;;4.40;;
82159;SDS011;71734;50.876;7.372;2024-01-06T08:11:33;11.60;;;4.47;;
82159;SDS011;71734;50.876;7.372;2024-01-06T08:14:00;11.57;;;4.40;;
82159;SDS011;71734;50.876;7.372;2024-01-06T08:16:28;12.25;;;4.88;;
82159;SDS011;71734;50.876;7.372;2024-01-06T08:18:55;13.38;;;4.53;;
82159;SDS011;71734;50.876;7.372;2024-01-06T08:21:21;11.70;;;4.20;;
82159;SDS011;71734;50.876;7.372;2024-01-06T08:23:50;13.20;;;4.45;;
82159;SDS011;71734;50.876;7.372;2024-01-06T08:26:16;11.93;;;4.32;;
82159;SDS011;71734;50.876;7.372;2024-01-06T08:28:43;12.10;;;4.80;;
82159;SDS011;71734;50.876;7.372;2024-01-06T08:31:10;12.55;;;5.28;;
82159;SDS011;71734;50.876;7.372;2024-01-06T08:33:36;13.13;;;5.18;;
82159;SDS011;71734;50.876;7.372;2024-01-06T08:36:05;14.43;;;5.32;;
82159;SDS011;71734;50.876;7.372;2024-01-06T08:38:33;14.27;;;4.93;;
82159;SDS011;71734;50.876;7.372;2024-01-06T08:41:01;13.95;;;5.63;;
82159;SDS011;71734;50.876;7.372;2024-01-06T08:43:30;11.70;;;4.68;;
82159;SDS011;71734;50.876;7.372;2024-01-06T08:45:57;14.50;;;5.68;;
82159;SDS011;71734;50.876;7.372;2024-01-06T08:48:24;14.45;;;5.75;;
82159;SDS011;71734;50.876;7.372;2024-01-06T08:50:51;14.95;;;5.50;;
82159;SDS011;71734;50.876;7.372;2024-01-06T08:53:17;13.35;;;5.20;;
82159;SDS011;71734;50.876;7.372;2024-01-06T08:55:44;13.57;;;4.97;;
82159;SDS011;71734;50.876;7.372;2024-01-06T08:58:12;15.13;;;4.97;;
82159;SDS011;71734;50.876;7.372;2024-01-06T09:00:39;14.50;;;5.72;;
82159;SDS011;71734;50.876;7.372;2024-01-06T09:03:06;14.15;;;5.15;;
82159;SDS011;71734;50.876;7.372;2024-01-06T09:05:34;13.18;;;5.30;;
82159;SDS011;71734;50.876;7.372;2024-01-06T09:08:03;14.10;;;5.13;;
82159;SDS011;71734;50.876;7.372;2024-01-06T09:10:31;14.57;;;5.35;;
82159;SDS011;71734;50.876;7.372;2024-01-06T09:12:57;13.00;;;4.80;;
82159;SDS011;71734;50.876;7.372;2024-01-06T09:15:31;15.73;;;5.47;;
82159;SDS011;71734;50.876;7.372;2024-01-06T09:18:03;17.13;;;5.55;;
82159;SDS011;71734;50.876;7.372;2024-01-06T09:20:39;15.05;;;5.57;;
82159;SDS011;71734;50.876;7.372;2024-01-06T09:23:06;15.30;;;5.78;;
82159;SDS011;71734;50.876;7.372;2024-01-06T09:25:37;16.67;;;6.22;;
82159;SDS011;71734;50.876;7.372;2024-01-06T09:28:05;17.67;;;5.93;;
82159;SDS011;71734;50.876;7.372;2024-01-06T09:30:44;18.00;;;6.00;;
82159;SDS011;71734;50.876;7.372;2024-01-06T09:33:11;17.35;;;6.60;;
82159;SDS011;71734;50.876;7.372;2024-01-06T09:35:40;16.08;;;5.93;;
82159;SDS011;71734;50.876;7.372;2024-01-06T09:38:10;18.15;;;6.35;;
82159;SDS011;71734;50.876;7.372;2024-01-06T09:40:40;17.38;;;6.40;;
82159;SDS011;71734;50.876;7.372;2024-01-06T09:43:08;18.75;;;6.60;;
82159;SDS011;71734;50.876;7.372;2024-01-06T09:48:10;15.55;;;6.50;;
82159;SDS011;71734;50.876;7.372;2024-01-06T09:50:40;18.02;;;7.15;;
82159;SDS011;71734;50.876;7.372;2024-01-06T09:53:08;17.30;;;6.15;;
82159;SDS011;71734;50.876;7.372;2024-01-06T09:55:39;14.27;;;6.00;;
82159;SDS011;71734;50.876;7.372;2024-01-06T09:58:06;16.92;;;6.18;;
82159;SDS011;71734;50.876;7.372;2024-01-06T10:00:35;14.65;;;5.60;;
82159;SDS011;71734;50.876;7.372;2024-01-06T10:03:02;15.43;;;5.78;;
82159;SDS011;71734;50.876;7.372;2024-01-06T10:05:34;13.15;;;5.13;;
82159;SDS011;71734;50.876;7.372;2024-01-06T10:08:01;13.77;;;4.97;;
82159;SDS011;71734;50.876;7.372;2024-01-06T10:10:29;15.45;;;5.63;;
82159;SDS011;71734;50.876;7.372;2024-01-06T10:12:56;13.38;;;5.20;;
82159;SDS011;71734;50.876;7.372;2024-01-06T10:15:25;13.02;;;4.90;;
82159;SDS011;71734;50.876;7.372;2024-01-06T10:17:54;15.32;;;5.40;;
82159;SDS011;71734;50.876;7.372;2024-01-06T10:20:21;14.05;;;5.15;;
82159;SDS011;71734;50.876;7.372;2024-01-06T10:22:54;13.93;;;4.78;;
82159;SDS011;71734;50.876;7.372;2024-01-06T10:25:22;14.50;;;4.30;;
82159;SDS011;71734;50.876;7.372;2024-01-06T10:27:50;13.00;;;4.78;;
82159;SDS011;71734;50.876;7.372;2024-01-06T10:30:19;13.20;;;4.53;;
82159;SDS011;71734;50.876;7.372;2024-01-06T10:32:45;11.55;;;4.20;;
82159;SDS011;71734;50.876;7.372;2024-01-06T10:35:12;13.98;;;5.00;;
82159;SDS011;71734;50.876;7.372;2024-01-06T10:37:41;12.88;;;4.78;;
82159;SDS011;71734;50.876;7.372;2024-01-06T10:40:11;13.38;;;4.65;;
82159;SDS011;71734;50.876;7.372;2024-01-06T10:42:39;14.60;;;4.88;;
82159;SDS011;71734;50.876;7.372;2024-01-06T10:47:38;10.52;;;3.83;;
82159;SDS011;71734;50.876;7.372;2024-01-06T10:50:05;11.80;;;3.90;;
82159;SDS011;71734;50.876;7.372;2024-01-06T10:52:33;11.73;;;3.75;;
82159;SDS011;71734;50.876;7.372;2024-01-06T10:55:03;10.82;;;4.55;;
82159;SDS011;71734;50.876;7.372;2024-01-06T10:57:35;11.95;;;3.70;;
82159;SDS011;71734;50.876;7.372;2024-01-06T11:00:04;9.45;;;3.40;;
82159;SDS011;71734;50.876;7.372;2024-01-06T11:02:31;10.77;;;3.92;;
82159;SDS011;71734;50.876;7.372;2024-01-06T11:04:58;11.20;;;3.78;;
82159;SDS011;71734;50.876;7.372;2024-01-06T11:07:25;11.38;;;3.80;;
82159;SDS011;71734;50.876;7.372;2024-01-06T11:09:55;12.90;;;4.53;;
82159;SDS011;71734;50.876;7.372;2024-01-06T11:12:23;10.93;;;4.20;;
82159;SDS011;71734;50.876;7.372;2024-01-06T11:14:52;10.90;;;4.03;;
82159;SDS011;71734;50.876;7.372;2024-01-06T11:20:20;11.40;;;4.55;;
82159;SDS011;71734;50.876;7.372;2024-01-06T11:22:47;11.07;;;4.13;;
82159;SDS011;71734;50.876;7.372;2024-01-06T11:25:15;10.13;;;4.00;;
82159;SDS011;71734;50.876;7.372;2024-01-06T11:27:45;11.48;;;4.50;;
82159;SDS011;71734;50.876;7.372;2024-01-06T11:30:21;12.57;;;4.43;;
82159;SDS011;71734;50.876;7.372;2024-01-06T11:32:50;11.60;;;4.13;;
82159;SDS011;71734;50.876;7.372;2024-01-06T11:35:25;12.00;;;4.10;;
82159;SDS011;71734;50.876;7.372;2024-01-06T11:37:53;12.77;;;4.88;;
82159;SDS011;71734;50.876;7.372;2024-01-06T11:40:25;14.75;;;5.55;;
82159;SDS011;71734;50.876;7.372;2024-01-06T11:42:58;12.13;;;4.38;;
82159;SDS011;71734;50.876;7.372;2024-01-06T11:45:28;13.18;;;5.18;;
82159;SDS011;71734;50.876;7.372;2024-01-06T11:47:55;11.70;;;4.50;;
82159;SDS011;71734;50.876;7.372;2024-01-06T11:50:23;11.02;;;3.95;;
82159;SDS011;71734;50.876;7.372;2024-01-06T11:52:53;14.40;;;5.10;;
82159;SDS011;71734;50.876;7.372;2024-01-06T11:55:21;10.55;;;4.20;;
82159;SDS011;71734;50.876;7.372;2024-01-06T11:57:48;10.48;;;4.20;;
82159;SDS011;71734;50.876;7.372;2024-01-06T12:00:15;10.85;;;3.90;;
82159;SDS011;71734;50.876;7.372;2024-01-06T12:02:45;11.27;;;3.78;;
82159;SDS011;71734;50.876;7.372;2024-01-06T12:05:12;11.15;;;3.97;;
82159;SDS011;71734;50.876;7.372;2024-01-06T12:07:40;9.98;;;4.07;;
82159;SDS011;71734;50.876;7.372;2024-01-06T12:10:07;9.88;;;3.78;;
82159;SDS011;71734;50.876;7.372;2024-01-06T12:12:35;10.38;;;3.85;;
82159;SDS011;71734;50.876;7.372;2024-01-06T12:15:02;10.77;;;4.30;;
82159;SDS011;71734;50.876;7.372;2024-01-06T12:17:29;10.77;;;4.20;;
82159;SDS011;71734;50.876;7.372;2024-01-06T12:19:58;11.15;;;4.00;;
82159;SDS011;71734;50.876;7.372;2024-01-06T12:22:25;11.10;;;4.00;;
82159;SDS011;71734;50.876;7.372;2024-01-06T12:24:52;13.93;;;5.28;;
82159;SDS011;71734;50.876;7.372;2024-01-06T12:27:19;13.82;;;4.43;;
82159;SDS011;71734;50.876;7.372;2024-01-06T12:29:49;12.85;;;4.70;;
82159;SDS011;71734;50.876;7.372;2024-01-06T12:32:16;14.23;;;5.18;;
82159;SDS011;71734;50.876;7.372;2024-01-06T12:34:44;13.65;;;4.80;;
82159;SDS011;71734;50.876;7.372;2024-01-06T12:37:14;12.48;;;4.70;;
82159;SDS011;71734;50.876;7.372;2024-01-06T12:39:45;14.05;;;5.07;;
82159;SDS011;71734;50.876;7.372;2024-01-06T12:42:14;13.27;;;5.20;;
82159;SDS011;71734;50.876;7.372;2024-01-06T12:44:42;17.23;;;5.47;;
82159;SDS011;71734;50.876;7.372;2024-01-06T12:47:09;14.73;;;5.65;;
82159;SDS011;71734;50.876;7.372;2024-01-06T12:49:37;15.40;;;5.97;;
82159;SDS011;71734;50.876;7.372;2024-01-06T12:52:04;17.05;;;6.15;;
82159;SDS011;71734;50.876;7.372;2024-01-06T12:54:35;18.73;;;6.43;;
82159;SDS011;71734;50.876;7.372;2024-01-06T12:57:05;16.58;;;5.75;;
82159;SDS011;71734;50.876;7.372;2024-01-06T12:59:32;18.20;;;6.22;;
82159;SDS011;71734;50.876;7.372;2024-01-06T13:01:59;15.70;;;5.50;;
82159;SDS011;71734;50.876;7.372;2024-01-06T13:04:25;17.00;;;6.13;;
82159;SDS011;71734;50.876;7.372;2024-01-06T13:06:52;16.70;;;5.70;;
82159;SDS011;71734;50.876;7.372;2024-01-06T13:09:19;15.95;;;5.78;;
82159;SDS011;71734;50.876;7.372;2024-01-06T13:11:49;15.80;;;5.82;;
82159;SDS011;71734;50.876;7.372;2024-01-06T13:14:16;16.65;;;6.35;;
82159;SDS011;71734;50.876;7.372;2024-01-06T13:16:45;17.27;;;6.38;;
82159;SDS011;71734;50.876;7.372;2024-01-06T13:19:11;17.48;;;5.53;;
82159;SDS011;71734;50.876;7.372;2024-01-06T13:21:38;16.38;;;6.18;;
82159;SDS011;71734;50.876;7.372;2024-01-06T13:24:08;16.70;;;7.15;;
82159;SDS011;71734;50.876;7.372;2024-01-06T13:26:38;17.15;;;6.05;;
82159;SDS011;71734;50.876;7.372;2024-01-06T13:29:11;15.52;;;5.63;;
82159;SDS011;71734;50.876;7.372;2024-01-06T13:31:38;18.65;;;6.35;;
82159;SDS011;71734;50.876;7.372;2024-01-06T13:34:05;19.77;;;6.85;;
82159;SDS011;71734;50.876;7.372;2024-01-06T13:36:34;21.08;;;6.53;;
82159;SDS011;71734;50.876;7.372;2024-01-06T13:39:01;19.73;;;6.72;;
82159;SDS011;71734;50.876;7.372;2024-01-06T13:41:29;18.55;;;6.38;;
82159;SDS011;71734;50.876;7.372;2024-01-06T13:43:56;17.55;;;6.32;;
82159;SDS011;71734;50.876;7.372;2024-01-06T13:46:25;15.93;;;5.70;;
82159;SDS011;71734;50.876;7.372;2024-01-06T13:48:52;17.58;;;5.72;;
82159;SDS011;71734;50.876;7.372;2024-01-06T13:51:18;16.75;;;5.00;;
82159;SDS011;71734;50.876;7.372;2024-01-06T13:53:45;18.10;;;5.75;;
82159;SDS011;71734;50.876;7.372;2024-01-06T13:56:12;15.27;;;5.13;;
82159;SDS011;71734;50.876;7.372;2024-01-06T13:58:39;17.70;;;5.88;;
82159;SDS011;71734;50.876;7.372;2024-01-06T14:01:05;15.85;;;5.63;;
82159;SDS011;71734;50.876;7.372;2024-01-06T14:03:37;13.88;;;4.60;;
82159;SDS011;71734;50.876;7.372;2024-01-06T14:06:04;17.30;;;5.75;;
82159;SDS011;71734;50.876;7.372;2024-01-06T14:08:31;15.63;;;5.22;;
82159;SDS011;71734;50.876;7.372;2024-01-06T14:10:58;17.08;;;5.85;;
82159;SDS011;71734;50.876;7.372;2024-01-06T14:13:24;16.42;;;6.15;;
82159;SDS011;71734;50.876;7.372;2024-01-06T14:15:51;20.05;;;7.15;;
82159;SDS011;71734;50.876;7.372;2024-01-06T14:18:17;17.13;;;5.68;;
82159;SDS011;71734;50.876;7.372;2024-01-06T14:20:46;18.70;;;5.55;;
82159;SDS011;71734;50.876;7.372;2024-01-06T14:23:13;17.27;;;5.65;;
82159;SDS011;71734;50.876;7.372;2024-01-06T14:25:40;15.85;;;6.22;;
82159;SDS011;71734;50.876;7.372;2024-01-06T14:28:07;15.38;;;4.75;;
82159;SDS011;71734;50.876;7.372;2024-01-06T14:30:33;14.27;;;6.07;;
82159;SDS011;71734;50.876;7.372;2024-01-06T14:33:00;15.98;;;5.13;;
82159;SDS011;71734;50.876;7.372;2024-01-06T14:35:29;15.07;;;5.10;;
82159;SDS011;71734;50.876;7.372;2024-01-06T14:37:57;14.95;;;5.00;;
82159;SDS011;71734;50.876;7.372;2024-01-06T14:40:26;16.05;;;4.82;;
82159;SDS011;71734;50.876;7.372;2024-01-06T14:42:53;16.42;;;5.40;;
82159;SDS011;71734;50.876;7.372;2024-01-06T14:45:21;14.55;;;4.80;;
82159;SDS011;71734;50.876;7.372;2024-01-06T14:47:48;15.88;;;5.57;;